Time;durP1;ratioP1;P1;durP2;ratioP2;P2;SDS_P1;SDS_P2;PMS_P1;PMS_P2;Temp;Humidity;BMP_temperature;BMP_pressure;BME280_temperature;BME280_humidity;BME280_pressure;Samples;Min_cycle;Max_cycle;Signal;HPM_P1;HPM_P2
2023/05/06 00:01:44;;;;;;;15.10;10.63;;;13.90;99.90;;;;;;4208925;28;20825;-73
2023/05/06 00:03:46;;;;;;;14.50;10.17;;;13.80;99.90;;;;;;4207495;28;20670;-73
2023/05/06 00:05:48;;;;;;;20.00;10.23;;;13.90;99.90;;;;;;4202671;28;20234;-73
2023/05/06 00:07:50;;;;;;;14.37;10.27;;;13.90;99.90;;;;;;4210999;28;20218;-73
2023/05/06 00:09:52;;;;;;;14.30;9.30;;;13.80;99.90;;;;;;4204636;28;20679;-73
2023/05/06 00:11:54;;;;;;;15.30;10.10;;;13.80;99.90;;;;;;4209611;28;20236;-73
2023/05/06 00:13:57;;;;;;;16.77;10.97;;;13.80;99.90;;;;;;4213588;28;20235;-74
2023/05/06 00:15:59;;;;;;;16.00;10.73;;;13.70;99.90;;;;;;4209170;28;20317;-74
2023/05/06 00:18:01;;;;;;;16.73;10.90;;;13.70;99.90;;;;;;4215230;28;20213;-74
2023/05/06 00:20:03;;;;;;;19.70;11.80;;;13.70;99.90;;;;;;4206557;28;20202;-74
2023/05/06 00:22:05;;;;;;;15.23;10.77;;;13.70;99.90;;;;;;4207073;28;20593;-73
2023/05/06 00:24:07;;;;;;;16.20;10.40;;;13.60;99.90;;;;;;4211066;28;20759;-73
2023/05/06 00:26:09;;;;;;;15.70;11.20;;;13.60;99.90;;;;;;4206085;28;20308;-74
2023/05/06 00:28:11;;;;;;;18.47;10.83;;;13.60;99.90;;;;;;4207670;28;20296;-74
2023/05/06 00:30:15;;;;;;;13.73;9.70;;;13.50;99.90;;;;;;4211484;28;20297;-74
2023/05/06 00:32:17;;;;;;;17.17;10.90;;;13.50;99.90;;;;;;4207414;28;20235;-74
2023/05/06 00:34:18;;;;;;;13.67;9.73;;;13.40;99.90;;;;;;4209393;28;20318;-74
2023/05/06 00:36:20;;;;;;;16.50;10.37;;;13.40;99.90;;;;;;4209151;28;20213;-73
2023/05/06 00:38:23;;;;;;;15.93;10.87;;;13.30;99.90;;;;;;4205115;28;20201;-74
2023/05/06 00:40:25;;;;;;;13.83;9.93;;;13.30;99.90;;;;;;4206280;28;20296;-74
2023/05/06 00:42:27;;;;;;;16.17;11.40;;;13.30;99.90;;;;;;4211378;28;20247;-73
2023/05/06 00:44:28;;;;;;;15.60;10.73;;;13.20;99.90;;;;;;4208897;28;20315;-74
2023/05/06 00:46:32;;;;;;;14.03;9.57;;;13.20;99.90;;;;;;4214866;28;20205;-73
2023/05/06 00:48:34;;;;;;;18.50;11.33;;;13.20;99.90;;;;;;4209890;28;20656;-76
2023/05/06 00:50:36;;;;;;;16.87;10.50;;;13.20;99.90;;;;;;4205035;28;20270;-74
2023/05/06 00:52:38;;;;;;;17.77;10.70;;;13.10;99.90;;;;;;4204338;28;20308;-74
2023/05/06 00:54:40;;;;;;;14.23;9.77;;;13.10;99.90;;;;;;4205478;28;20335;-73
2023/05/06 00:56:42;;;;;;;18.00;11.37;;;13.10;99.90;;;;;;4204995;28;20304;-73
2023/05/06 00:58:44;;;;;;;15.00;10.67;;;13.00;99.90;;;;;;4208145;28;20569;-74
2023/05/06 01:00:46;;;;;;;18.70;10.70;;;13.00;99.90;;;;;;4202508;28;20663;-74
2023/05/06 01:02:50;;;;;;;21.47;11.60;;;13.00;99.90;;;;;;4208706;28;20207;-74
2023/05/06 01:04:54;;;;;;;19.70;11.53;;;13.00;99.90;;;;;;4203623;28;20320;-73
2023/05/06 01:07:08;;;;;;;19.10;11.83;;;12.90;99.90;;;;;;4210171;28;20237;-74
2023/05/06 01:09:16;;;;;;;18.10;11.50;;;13.00;99.90;;;;;;4209707;28;20295;-73
2023/05/06 01:11:25;;;;;;;20.60;12.63;;;12.90;99.90;;;;;;4210785;28;20201;-75
2023/05/06 01:13:35;;;;;;;18.13;11.87;;;12.90;99.90;;;;;;4215990;28;20761;-73
2023/05/06 01:15:43;;;;;;;22.13;12.53;;;12.80;99.90;;;;;;4213472;28;20229;-73
2023/05/06 01:17:48;;;;;;;21.43;13.23;;;12.80;99.90;;;;;;4210225;28;20728;-74
2023/05/06 01:19:56;;;;;;;18.17;12.10;;;12.70;99.90;;;;;;4205580;28;20209;-76
2023/05/06 01:22:02;;;;;;;20.33;12.00;;;12.80;99.90;;;;;;4213426;28;20592;-74
2023/05/06 01:24:06;;;;;;;18.97;11.57;;;12.70;99.90;;;;;;4207324;28;20229;-73
2023/05/06 01:26:08;;;;;;;19.80;12.73;;;12.70;99.90;;;;;;4205334;28;20224;-74
2023/05/06 01:28:11;;;;;;;20.00;13.17;;;12.70;99.90;;;;;;4210434;28;20300;-75
2023/05/06 01:30:15;;;;;;;18.43;11.60;;;12.70;99.90;;;;;;4210460;28;20283;-74
2023/05/06 01:32:32;;;;;;;19.80;12.47;;;12.70;99.90;;;;;;4207159;28;20936;-75
2023/05/06 01:34:43;;;;;;;21.67;13.30;;;12.70;99.90;;;;;;4210197;28;20259;-76
2023/05/06 01:36:52;;;;;;;21.17;13.43;;;12.60;99.90;;;;;;4212631;28;20299;-75
2023/05/06 01:39:01;;;;;;;21.43;13.53;;;12.60;99.90;;;;;;4204558;28;20219;-75
2023/05/06 01:41:05;;;;;;;18.13;11.40;;;12.60;99.90;;;;;;4210145;28;20208;-75
2023/05/06 01:43:07;;;;;;;20.30;13.20;;;12.60;99.90;;;;;;4211215;28;20236;-76
2023/05/06 01:45:11;;;;;;;22.93;14.40;;;12.60;99.90;;;;;;4207038;28;20229;-75
2023/05/06 01:47:14;;;;;;;19.23;12.70;;;12.60;99.90;;;;;;4206178;28;20223;-75
2023/05/06 01:49:20;;;;;;;21.30;14.20;;;12.50;99.90;;;;;;4206030;28;20213;-75
2023/05/06 01:51:22;;;;;;;22.47;13.07;;;12.50;99.90;;;;;;4210216;28;20646;-76
2023/05/06 01:53:24;;;;;;;21.57;12.90;;;12.50;99.90;;;;;;4207488;28;20208;-75
2023/05/06 01:55:26;;;;;;;18.90;12.20;;;12.50;99.90;;;;;;4205638;28;20212;-75
2023/05/06 01:57:29;;;;;;;18.63;12.63;;;12.50;99.90;;;;;;4210244;28;20668;-75
2023/05/06 01:59:31;;;;;;;19.77;12.57;;;12.50;99.90;;;;;;4204187;28;20687;-75
2023/05/06 02:01:33;;;;;;;19.60;12.60;;;12.50;99.90;;;;;;4206857;28;20221;-75
2023/05/06 02:03:36;;;;;;;19.93;12.63;;;12.50;99.90;;;;;;4209281;28;20259;-76
2023/05/06 02:05:38;;;;;;;19.37;12.47;;;12.40;99.90;;;;;;4209852;28;20694;-75
2023/05/06 02:07:39;;;;;;;18.23;11.63;;;12.40;99.90;;;;;;4208630;28;21130;-75
2023/05/06 02:09:41;;;;;;;16.63;11.80;;;12.40;99.90;;;;;;4205291;28;20258;-76
2023/05/06 02:11:43;;;;;;;18.87;12.37;;;12.40;99.90;;;;;;4207638;28;20210;-73
2023/05/06 02:13:46;;;;;;;21.67;12.60;;;12.50;99.90;;;;;;4207150;28;20721;-73
2023/05/06 02:15:52;;;;;;;17.77;12.23;;;12.40;99.90;;;;;;4206919;28;20208;-73
2023/05/06 02:17:55;;;;;;;17.53;11.87;;;12.40;99.90;;;;;;4208278;28;20205;-74
2023/05/06 02:19:57;;;;;;;19.70;12.60;;;12.40;99.90;;;;;;4211754;28;20201;-74
2023/05/06 02:21:59;;;;;;;19.03;11.83;;;12.40;99.90;;;;;;4211331;28;20209;-73
2023/05/06 02:24:01;;;;;;;19.30;12.50;;;12.40;99.90;;;;;;4208081;28;20322;-73
2023/05/06 02:26:03;;;;;;;22.03;12.20;;;12.40;99.90;;;;;;4211666;28;20822;-74
2023/05/06 02:28:05;;;;;;;18.70;11.30;;;12.40;99.90;;;;;;4208087;28;20205;-73
2023/05/06 02:30:09;;;;;;;20.57;11.63;;;12.40;99.90;;;;;;4209432;28;20219;-75
2023/05/06 02:32:11;;;;;;;17.90;12.20;;;12.40;99.90;;;;;;4214884;28;20246;-74
2023/05/06 02:34:13;;;;;;;18.83;11.87;;;12.30;99.90;;;;;;4211211;28;20316;-75
2023/05/06 02:36:15;;;;;;;17.80;11.60;;;12.30;99.90;;;;;;4205799;28;20236;-72
2023/05/06 02:38:17;;;;;;;22.07;12.93;;;12.30;99.90;;;;;;4211763;28;20244;-72
2023/05/06 02:40:18;;;;;;;17.10;11.33;;;12.30;99.90;;;;;;4209617;28;20315;-73
2023/05/06 02:42:21;;;;;;;17.57;11.93;;;12.30;99.90;;;;;;4206452;28;20658;-73
2023/05/06 02:44:22;;;;;;;21.67;12.63;;;12.30;99.90;;;;;;4206058;28;20324;-73
2023/05/06 02:46:26;;;;;;;16.03;10.73;;;12.30;99.90;;;;;;4208831;28;20225;-73
2023/05/06 02:48:27;;;;;;;14.77;10.13;;;12.30;99.90;;;;;;4210027;28;20215;-73
2023/05/06 02:50:29;;;;;;;18.03;11.13;;;12.30;99.90;;;;;;4213642;28;20216;-74
2023/05/06 02:52:32;;;;;;;17.93;11.57;;;12.30;99.90;;;;;;4208757;28;20306;-74
2023/05/06 02:54:34;;;;;;;20.23;12.23;;;12.30;99.90;;;;;;4207988;28;20232;-73
2023/05/06 02:56:36;;;;;;;20.03;12.70;;;12.20;99.90;;;;;;4210781;28;20831;-74
2023/05/06 02:58:38;;;;;;;18.03;11.77;;;12.30;99.90;;;;;;4211921;28;20212;-76
2023/05/06 03:00:39;;;;;;;21.77;12.10;;;12.20;99.90;;;;;;4216967;28;20218;-73
2023/05/06 03:02:43;;;;;;;18.30;11.57;;;12.20;99.90;;;;;;4210861;28;20217;-73
2023/05/06 03:04:47;;;;;;;19.63;13.00;;;12.20;99.90;;;;;;4204814;28;20229;-73
2023/05/06 03:06:49;;;;;;;21.33;12.27;;;12.20;99.90;;;;;;4205275;28;20235;-74
2023/05/06 03:08:51;;;;;;;19.10;12.37;;;12.20;99.90;;;;;;4213163;28;20245;-73
2023/05/06 03:10:53;;;;;;;22.90;12.37;;;12.20;99.90;;;;;;4210458;28;20229;-73
2023/05/06 03:12:55;;;;;;;26.37;13.90;;;12.20;99.90;;;;;;4210967;28;20693;-74
2023/05/06 03:14:57;;;;;;;18.83;13.40;;;12.20;99.90;;;;;;4207959;28;20233;-76
2023/05/06 03:16:59;;;;;;;18.70;13.00;;;12.10;99.90;;;;;;4200635;28;20301;-72
2023/05/06 03:19:02;;;;;;;19.90;13.03;;;12.00;99.90;;;;;;4208170;28;20217;-73
2023/05/06 03:21:04;;;;;;;25.83;14.33;;;12.00;99.90;;;;;;4209161;28;20324;-73
2023/05/06 03:23:06;;;;;;;23.07;14.30;;;12.00;99.90;;;;;;4207539;28;20216;-73
2023/05/06 03:25:09;;;;;;;21.17;13.60;;;11.90;99.90;;;;;;4208488;28;21150;-73
2023/05/06 03:27:10;;;;;;;26.63;13.73;;;11.90;99.90;;;;;;4209583;28;20605;-73
2023/05/06 03:29:12;;;;;;;24.57;14.43;;;11.80;99.90;;;;;;4212328;28;20817;-73
2023/05/06 03:31:14;;;;;;;22.43;14.10;;;11.80;99.90;;;;;;4205476;28;20653;-73
2023/05/06 03:33:16;;;;;;;19.57;13.20;;;11.80;99.90;;;;;;4207640;28;20201;-72
2023/05/06 03:35:20;;;;;;;18.97;13.20;;;11.80;99.90;;;;;;4211088;28;20231;-73
2023/05/06 03:37:22;;;;;;;22.17;13.40;;;11.80;99.90;;;;;;4206209;28;20291;-72
2023/05/06 03:39:24;;;;;;;23.03;13.90;;;11.80;99.90;;;;;;4209556;28;20247;-73
2023/05/06 03:41:26;;;;;;;16.87;12.57;;;11.80;99.90;;;;;;4211672;28;20212;-73
2023/05/06 03:43:27;;;;;;;17.20;12.37;;;11.80;99.90;;;;;;4206570;28;20382;-73
2023/05/06 03:45:29;;;;;;;21.67;13.57;;;11.80;99.90;;;;;;4204898;28;20893;-73
2023/05/06 03:47:31;;;;;;;22.13;14.10;;;11.70;99.90;;;;;;4208115;28;20235;-73
2023/05/06 03:49:33;;;;;;;20.33;13.83;;;11.70;99.90;;;;;;4207712;28;20603;-73
2023/05/06 03:51:36;;;;;;;18.17;12.60;;;11.70;99.90;;;;;;4210759;28;20302;-73
2023/05/06 03:53:38;;;;;;;19.93;13.37;;;11.70;99.90;;;;;;4205843;28;20714;-72
2023/05/06 03:55:40;;;;;;;19.87;12.90;;;11.70;99.90;;;;;;4206836;28;20665;-73
2023/05/06 03:57:42;;;;;;;20.33;13.57;;;11.70;99.90;;;;;;4207167;28;20300;-73
2023/05/06 03:59:44;;;;;;;24.20;14.67;;;11.70;99.90;;;;;;4205953;28;20254;-74
2023/05/06 04:01:46;;;;;;;23.17;15.00;;;11.70;99.90;;;;;;4206843;28;20302;-72
2023/05/06 04:03:48;;;;;;;21.40;13.63;;;11.70;99.90;;;;;;4207148;28;21027;-72
2023/05/06 04:05:50;;;;;;;19.83;13.37;;;11.70;99.90;;;;;;4206468;28;20217;-73
2023/05/06 04:07:53;;;;;;;20.40;14.13;;;11.70;99.90;;;;;;4206030;28;20221;-72
2023/05/06 04:09:55;;;;;;;21.00;14.37;;;11.70;99.90;;;;;;4202779;28;20227;-72
2023/05/06 04:11:57;;;;;;;27.93;17.07;;;11.70;99.90;;;;;;4204540;28;20219;-72
2023/05/06 04:13:59;;;;;;;27.50;15.40;;;11.70;99.90;;;;;;4207715;28;20236;-72
2023/05/06 04:16:02;;;;;;;21.67;14.67;;;11.70;99.90;;;;;;4207061;28;20863;-74
2023/05/06 04:18:06;;;;;;;23.67;15.07;;;11.70;99.90;;;;;;4209651;28;20262;-75
2023/05/06 04:20:10;;;;;;;22.33;14.87;;;11.70;99.90;;;;;;4205692;28;20220;-75
2023/05/06 04:22:12;;;;;;;24.83;15.47;;;11.70;99.90;;;;;;4212550;28;20216;-75
2023/05/06 04:24:15;;;;;;;27.00;16.93;;;11.70;99.90;;;;;;4202597;28;20352;-75
2023/05/06 04:26:17;;;;;;;26.93;16.97;;;11.70;99.90;;;;;;4206739;28;20278;-75
2023/05/06 04:28:19;;;;;;;25.70;17.50;;;11.70;99.90;;;;;;4206109;28;20220;-73
2023/05/06 04:30:21;;;;;;;30.27;16.80;;;11.70;99.90;;;;;;4211316;28;20211;-74
2023/05/06 04:32:24;;;;;;;26.03;16.37;;;11.60;99.90;;;;;;4213001;28;20718;-73
2023/05/06 04:34:26;;;;;;;29.43;17.83;;;11.60;99.90;;;;;;4207971;28;20693;-74
2023/05/06 04:36:28;;;;;;;28.93;17.13;;;11.60;99.90;;;;;;4208448;28;20641;-73
2023/05/06 04:38:30;;;;;;;26.07;17.60;;;11.60;99.90;;;;;;4207705;28;20804;-74
2023/05/06 04:40:35;;;;;;;27.60;16.23;;;11.60;99.90;;;;;;4207638;28;20233;-74
2023/05/06 04:42:38;;;;;;;25.93;17.03;;;11.70;99.90;;;;;;4209117;28;20311;-75
2023/05/06 04:44:40;;;;;;;27.07;17.53;;;11.70;99.90;;;;;;4208347;28;20240;-73
2023/05/06 04:46:42;;;;;;;30.13;18.03;;;11.70;99.90;;;;;;4205653;28;20247;-74
2023/05/06 04:48:44;;;;;;;29.07;17.00;;;11.70;99.90;;;;;;4212397;28;20580;-75
2023/05/06 04:50:46;;;;;;;25.57;17.20;;;11.70;99.90;;;;;;4212851;28;20213;-75
2023/05/06 04:52:48;;;;;;;29.83;17.23;;;11.70;99.90;;;;;;4210674;28;20224;-76
2023/05/06 04:54:50;;;;;;;33.17;20.40;;;11.70;99.90;;;;;;4205169;28;20237;-74
2023/05/06 04:56:53;;;;;;;28.87;18.83;;;11.80;99.90;;;;;;4205997;28;20200;-75
2023/05/06 04:58:55;;;;;;;33.50;19.33;;;11.70;99.90;;;;;;4209888;28;20212;-75
2023/05/06 05:00:57;;;;;;;39.03;21.83;;;11.70;99.90;;;;;;4209838;28;20208;-75
2023/05/06 05:03:00;;;;;;;32.33;19.93;;;11.70;99.90;;;;;;4212684;28;20216;-74
2023/05/06 05:05:02;;;;;;;34.57;20.90;;;11.80;99.90;;;;;;4206263;28;20244;-75
2023/05/06 05:07:04;;;;;;;30.13;19.70;;;11.80;99.90;;;;;;4208413;28;20629;-75
2023/05/06 05:09:06;;;;;;;33.13;19.97;;;11.80;99.90;;;;;;4210825;28;20298;-74
2023/05/06 05:11:08;;;;;;;36.87;20.17;;;11.80;99.90;;;;;;4210329;28;20299;-74
2023/05/06 05:13:11;;;;;;;31.50;19.83;;;11.80;99.90;;;;;;4210483;28;20307;-74
2023/05/06 05:15:13;;;;;;;37.67;21.73;;;11.80;99.90;;;;;;4205142;28;20216;-74
2023/05/06 05:17:15;;;;;;;40.27;22.30;;;11.80;99.90;;;;;;4205049;28;20213;-74
2023/05/06 05:19:17;;;;;;;36.97;21.00;;;11.90;99.90;;;;;;4206950;28;20209;-75
2023/05/06 05:21:20;;;;;;;30.30;19.40;;;11.80;99.90;;;;;;4210044;28;20308;-75
2023/05/06 05:23:22;;;;;;;36.87;21.63;;;11.80;99.90;;;;;;4205291;28;20223;-74
2023/05/06 05:25:24;;;;;;;31.37;19.77;;;11.80;99.90;;;;;;4207631;28;20208;-75
2023/05/06 05:27:26;;;;;;;30.97;19.43;;;11.80;99.90;;;;;;4209967;28;20225;-74
2023/05/06 05:29:29;;;;;;;30.67;18.23;;;11.90;99.90;;;;;;4210355;28;20318;-73
2023/05/06 05:31:31;;;;;;;35.93;20.10;;;11.90;99.90;;;;;;4208714;28;20277;-73
2023/05/06 05:33:33;;;;;;;34.47;18.73;;;12.00;99.90;;;;;;4213689;28;20330;-73
2023/05/06 05:35:35;;;;;;;32.00;20.43;;;12.00;99.90;;;;;;4208240;28;20271;-74
2023/05/06 05:37:37;;;;;;;31.17;18.93;;;12.00;99.90;;;;;;4211236;28;20946;-74
2023/05/06 05:39:39;;;;;;;35.00;20.83;;;12.10;99.90;;;;;;4211488;28;20310;-75
2023/05/06 05:41:41;;;;;;;32.80;19.77;;;12.20;99.90;;;;;;4213806;28;20240;-75
2023/05/06 05:43:43;;;;;;;37.97;19.47;;;12.30;99.90;;;;;;4210305;28;20226;-75
2023/05/06 05:45:46;;;;;;;29.13;19.77;;;12.30;99.90;;;;;;4210296;28;21124;-75
2023/05/06 05:47:48;;;;;;;36.43;19.80;;;12.40;99.90;;;;;;4209568;28;20249;-74
2023/05/06 05:49:50;;;;;;;32.93;18.03;;;12.30;99.90;;;;;;4209254;28;20221;-74
2023/05/06 05:51:52;;;;;;;33.17;19.93;;;12.40;99.90;;;;;;4211290;28;20284;-75
2023/05/06 05:53:54;;;;;;;28.50;17.50;;;12.40;99.90;;;;;;4210956;28;20283;-75
2023/05/06 05:55:56;;;;;;;29.20;20.20;;;12.30;99.90;;;;;;4207685;28;20554;-75
2023/05/06 05:57:58;;;;;;;31.93;20.03;;;12.40;99.90;;;;;;4210272;28;20324;-75
2023/05/06 06:00:00;;;;;;;32.03;19.17;;;12.40;99.90;;;;;;4206936;28;20240;-74
2023/05/06 06:02:03;;;;;;;30.40;19.10;;;12.40;99.90;;;;;;4206249;28;20220;-74
2023/05/06 06:04:05;;;;;;;27.43;17.80;;;12.30;99.90;;;;;;4209233;28;20278;-74
2023/05/06 06:06:08;;;;;;;27.90;17.33;;;12.40;99.90;;;;;;4205979;28;20216;-75
2023/05/06 06:08:10;;;;;;;24.53;16.83;;;12.40;99.90;;;;;;4207007;28;20231;-74
2023/05/06 06:10:13;;;;;;;25.70;16.83;;;12.40;99.90;;;;;;4210628;28;20322;-74
2023/05/06 06:12:16;;;;;;;27.33;16.60;;;12.50;99.90;;;;;;4205709;28;20217;-75
2023/05/06 06:14:18;;;;;;;28.13;18.00;;;12.50;99.90;;;;;;4206013;28;20229;-75
2023/05/06 06:16:20;;;;;;;24.17;16.73;;;12.60;99.90;;;;;;4205170;28;20336;-75
2023/05/06 06:18:23;;;;;;;31.57;18.73;;;12.70;99.90;;;;;;4212309;28;20677;-75
2023/05/06 06:20:25;;;;;;;26.33;16.90;;;12.70;99.90;;;;;;4210636;28;20209;-74
2023/05/06 06:22:27;;;;;;;25.27;16.73;;;12.80;99.90;;;;;;4206349;28;20302;-74
2023/05/06 06:24:29;;;;;;;25.00;17.57;;;12.90;99.90;;;;;;4205513;28;20237;-75
2023/05/06 06:26:31;;;;;;;22.90;15.73;;;12.90;99.90;;;;;;4207390;28;20209;-75
2023/05/06 06:28:33;;;;;;;21.60;15.20;;;12.90;99.90;;;;;;4209684;28;20202;-74
2023/05/06 06:30:35;;;;;;;26.13;16.70;;;13.00;99.90;;;;;;4207024;28;20232;-75
2023/05/06 06:32:39;;;;;;;28.97;17.30;;;13.00;99.90;;;;;;4210574;28;20217;-75
2023/05/06 06:34:42;;;;;;;26.17;16.63;;;13.00;99.90;;;;;;4209325;28;20236;-75
2023/05/06 06:36:44;;;;;;;25.43;16.90;;;13.00;99.90;;;;;;4208332;28;20232;-75
2023/05/06 06:38:46;;;;;;;27.67;16.00;;;13.00;99.90;;;;;;4208576;28;20909;-76
2023/05/06 06:40:48;;;;;;;23.97;15.07;;;12.90;99.90;;;;;;4211813;28;20905;-75
2023/05/06 06:42:50;;;;;;;29.03;15.60;;;13.00;99.90;;;;;;4205296;28;20248;-75
2023/05/06 06:44:52;;;;;;;24.63;15.07;;;13.00;99.90;;;;;;4211157;28;20241;-75
2023/05/06 06:46:53;;;;;;;25.17;16.17;;;13.00;99.90;;;;;;4214028;28;20694;-74
2023/05/06 06:48:55;;;;;;;22.03;13.87;;;13.10;99.90;;;;;;4209047;28;20806;-75
2023/05/06 06:50:59;;;;;;;32.97;16.57;;;13.10;99.90;;;;;;4203065;28;20213;-76
2023/05/06 06:53:01;;;;;;;28.93;15.60;;;13.10;99.90;;;;;;4205948;28;20281;-75
2023/05/06 06:55:07;;;;;;;30.17;15.70;;;13.10;99.90;;;;;;4204113;28;20288;-76
2023/05/06 06:57:09;;;;;;;26.07;15.33;;;13.10;99.90;;;;;;4207130;28;20205;-76
2023/05/06 06:59:11;;;;;;;23.27;13.87;;;13.10;99.90;;;;;;4209740;28;20217;-76
2023/05/06 07:01:13;;;;;;;26.47;15.13;;;13.10;99.90;;;;;;4210098;28;20300;-76
2023/05/06 07:03:18;;;;;;;28.03;14.13;;;13.10;99.90;;;;;;4203658;28;20304;-76
2023/05/06 07:05:20;;;;;;;26.57;14.37;;;13.10;99.90;;;;;;4209697;28;20298;-75
2023/05/06 07:07:23;;;;;;;25.40;13.77;;;13.10;99.90;;;;;;4208209;28;20692;-75
2023/05/06 07:09:25;;;;;;;27.03;14.97;;;13.10;99.90;;;;;;4207538;28;20221;-76
2023/05/06 07:11:27;;;;;;;26.27;13.50;;;13.10;99.90;;;;;;4208529;28;20213;-76
2023/05/06 07:13:28;;;;;;;25.07;14.27;;;13.10;99.90;;;;;;4206133;28;20306;-76
2023/05/06 07:15:30;;;;;;;20.97;12.50;;;13.00;99.90;;;;;;4204719;28;20214;-76
2023/05/06 07:17:32;;;;;;;21.90;14.00;;;13.00;99.90;;;;;;4206203;28;20294;-76
2023/05/06 07:19:34;;;;;;;23.20;12.33;;;13.00;99.90;;;;;;4205517;28;20298;-76
2023/05/06 07:21:36;;;;;;;22.73;13.97;;;13.10;99.90;;;;;;4204491;28;20301;-76
2023/05/06 07:23:40;;;;;;;21.53;12.60;;;13.10;99.90;;;;;;4207048;28;20261;-76
2023/05/06 07:25:42;;;;;;;26.60;14.93;;;13.10;99.90;;;;;;4213929;28;20210;-76
2023/05/06 07:27:44;;;;;;;25.43;14.43;;;13.00;99.90;;;;;;4210371;28;20700;-76
2023/05/06 07:29:46;;;;;;;24.53;14.90;;;13.10;99.90;;;;;;4209046;28;20311;-76
2023/05/06 07:31:48;;;;;;;23.40;13.27;;;13.10;99.90;;;;;;4207730;28;20206;-76
2023/05/06 07:33:49;;;;;;;25.90;15.10;;;13.10;99.90;;;;;;4208867;28;20296;-76
2023/05/06 07:35:53;;;;;;;23.17;14.53;;;13.10;99.90;;;;;;4210175;28;20220;-76
2023/05/06 07:37:55;;;;;;;23.37;13.00;;;13.10;99.90;;;;;;4208117;28;20214;-76
2023/05/06 07:39:58;;;;;;;26.57;14.70;;;13.10;99.90;;;;;;4209908;28;20213;-76
2023/05/06 07:42:01;;;;;;;25.57;14.57;;;13.20;99.90;;;;;;4205992;28;20272;-77
2023/05/06 07:44:03;;;;;;;27.17;15.20;;;13.20;99.90;;;;;;4207475;28;20866;-74
2023/05/06 07:46:05;;;;;;;29.93;15.73;;;13.30;99.90;;;;;;4205204;28;20292;-75
2023/05/06 07:48:07;;;;;;;26.70;14.87;;;13.30;99.90;;;;;;4205934;28;20259;-75
2023/05/06 07:50:09;;;;;;;25.07;15.47;;;13.30;99.90;;;;;;4207285;28;20305;-75
2023/05/06 07:52:11;;;;;;;21.80;14.23;;;13.30;99.90;;;;;;4206805;28;20218;-77
2023/05/06 07:54:13;;;;;;;25.37;14.37;;;13.30;99.90;;;;;;4205923;28;20238;-75
2023/05/06 07:56:17;;;;;;;24.83;14.93;;;13.30;99.90;;;;;;4205189;28;20224;-74
2023/05/06 07:58:19;;;;;;;26.30;15.90;;;13.40;99.90;;;;;;4207720;28;20664;-76
2023/05/06 08:00:21;;;;;;;23.67;14.97;;;13.50;99.90;;;;;;4205718;28;20578;-77
2023/05/06 08:02:23;;;;;;;28.77;15.23;;;13.50;99.90;;;;;;4209750;28;20284;-74
2023/05/06 08:04:25;;;;;;;22.63;14.37;;;13.60;99.90;;;;;;4207960;28;20258;-74
2023/05/06 08:06:27;;;;;;;24.83;14.70;;;13.60;99.90;;;;;;4211939;28;20219;-73
2023/05/06 08:08:29;;;;;;;21.77;13.67;;;13.70;99.90;;;;;;4215928;28;20256;-73
2023/05/06 08:10:31;;;;;;;24.03;15.00;;;13.70;99.90;;;;;;4213175;28;20300;-73
2023/05/06 08:12:35;;;;;;;22.13;13.50;;;13.80;99.90;;;;;;4208714;28;20206;-74
2023/05/06 08:14:37;;;;;;;25.83;13.83;;;13.80;99.90;;;;;;4209712;28;20239;-74
2023/05/06 08:16:39;;;;;;;24.47;13.80;;;13.80;99.90;;;;;;4207386;28;20310;-74
2023/05/06 08:18:41;;;;;;;25.40;14.60;;;13.80;99.90;;;;;;4207174;28;20205;-76
2023/05/06 08:20:43;;;;;;;24.70;13.53;;;13.80;99.90;;;;;;4213875;28;20212;-76
2023/05/06 08:22:45;;;;;;;22.77;14.20;;;13.80;99.90;;;;;;4212836;28;20207;-76
2023/05/06 08:24:47;;;;;;;22.40;13.83;;;13.90;99.90;;;;;;4214968;28;20642;-74
2023/05/06 08:26:49;;;;;;;20.37;13.77;;;13.90;99.90;;;;;;4212112;28;20215;-73
2023/05/06 08:28:53;;;;;;;20.80;13.43;;;14.00;99.90;;;;;;4216409;28;20246;-74
2023/05/06 08:30:55;;;;;;;22.67;13.13;;;14.10;99.90;;;;;;4213926;28;20192;-75
2023/05/06 08:32:57;;;;;;;19.57;12.47;;;14.20;99.90;;;;;;4213361;28;20212;-75
2023/05/06 08:34:59;;;;;;;21.40;12.73;;;14.20;99.90;;;;;;4212663;28;20253;-75
2023/05/06 08:37:02;;;;;;;19.30;12.37;;;14.30;99.90;;;;;;4212900;28;20211;-74
2023/05/06 08:39:04;;;;;;;18.43;12.40;;;14.40;99.90;;;;;;4212598;28;20295;-75
2023/05/06 08:41:09;;;;;;;19.10;12.33;;;14.50;99.90;;;;;;4207413;28;20212;-76
2023/05/06 08:43:13;;;;;;;16.50;11.77;;;14.60;99.90;;;;;;4211891;28;20216;-74
2023/05/06 08:45:16;;;;;;;15.77;10.47;;;14.60;99.90;;;;;;4208929;28;20663;-75
2023/05/06 08:47:19;;;;;;;16.47;10.87;;;14.70;99.90;;;;;;4219713;28;20247;-74
2023/05/06 08:49:21;;;;;;;21.50;11.50;;;14.70;99.90;;;;;;4215154;28;20228;-75
2023/05/06 08:51:28;;;;;;;14.13;9.80;;;14.70;99.90;;;;;;4209289;28;20629;-75
2023/05/06 08:53:30;;;;;;;17.90;11.30;;;14.80;99.90;;;;;;4207832;28;20298;-75
2023/05/06 08:55:34;;;;;;;16.50;11.10;;;14.80;99.90;;;;;;4210841;28;20201;-75
2023/05/06 08:57:38;;;;;;;17.80;11.00;;;14.80;99.90;;;;;;4207581;28;20296;-75
2023/05/06 08:59:41;;;;;;;18.53;10.33;;;14.80;99.90;;;;;;4214908;28;20209;-75
2023/05/06 09:01:44;;;;;;;17.90;11.37;;;14.80;99.90;;;;;;4209808;28;20684;-75
2023/05/06 09:03:47;;;;;;;17.87;10.40;;;14.90;99.90;;;;;;4211715;28;20319;-75
2023/05/06 09:05:49;;;;;;;16.60;10.63;;;14.90;99.90;;;;;;4212781;28;20217;-74
2023/05/06 09:07:51;;;;;;;16.27;10.03;;;15.00;99.90;;;;;;4214322;28;20242;-75
2023/05/06 09:09:53;;;;;;;15.10;10.27;;;15.00;99.90;;;;;;4209800;28;20212;-75
2023/05/06 09:11:56;;;;;;;19.03;10.17;;;15.10;99.90;;;;;;4211127;28;20604;-75
2023/05/06 09:14:09;;;;;;;16.40;11.13;;;15.10;99.90;;;;;;4212669;28;20320;-75
2023/05/06 09:16:25;;;;;;;16.23;10.77;;;15.10;99.90;;;;;;4215306;28;20220;-75
2023/05/06 09:18:29;;;;;;;15.50;10.27;;;15.10;99.90;;;;;;4209237;28;20750;-75
2023/05/06 09:20:33;;;;;;;16.70;10.73;;;15.20;99.90;;;;;;4212084;28;20213;-75
2023/05/06 09:22:38;;;;;;;17.40;10.43;;;15.20;99.90;;;;;;4210445;28;20287;-76
2023/05/06 09:24:40;;;;;;;18.07;10.70;;;15.30;99.90;;;;;;4209073;28;20240;-75
2023/05/06 09:26:43;;;;;;;13.87;9.90;;;15.30;99.90;;;;;;4215061;28;20209;-75
2023/05/06 09:28:46;;;;;;;15.07;11.07;;;15.40;99.90;;;;;;4214701;28;20232;-75
2023/05/06 09:30:50;;;;;;;16.13;11.00;;;15.40;99.90;;;;;;4207171;28;20210;-75
2023/05/06 09:32:53;;;;;;;19.93;11.67;;;15.50;99.90;;;;;;4207905;28;20591;-75
2023/05/06 09:34:56;;;;;;;15.37;9.73;;;15.60;99.90;;;;;;4208495;28;20225;-75
2023/05/06 09:36:58;;;;;;;13.93;9.80;;;15.70;99.90;;;;;;4209018;28;20218;-75
2023/05/06 09:39:00;;;;;;;15.27;10.90;;;15.80;99.90;;;;;;4211646;28;20302;-75
2023/05/06 09:41:05;;;;;;;15.13;10.00;;;16.00;99.90;;;;;;4208103;28;20239;-75
2023/05/06 09:43:08;;;;;;;14.37;10.13;;;16.00;99.90;;;;;;4208725;28;20245;-75
2023/05/06 09:45:11;;;;;;;15.33;10.17;;;16.20;99.90;;;;;;4205616;28;20252;-76
2023/05/06 09:47:14;;;;;;;15.53;10.07;;;16.30;99.90;;;;;;4206707;28;20217;-75
2023/05/06 09:49:18;;;;;;;13.90;9.83;;;16.30;99.90;;;;;;4207659;28;20234;-75
2023/05/06 09:51:22;;;;;;;15.47;9.93;;;16.40;99.90;;;;;;4204877;28;20207;-75
2023/05/06 09:53:24;;;;;;;15.23;10.07;;;16.50;99.90;;;;;;4213231;28;20917;-75
2023/05/06 09:55:28;;;;;;;12.33;8.93;;;16.60;99.90;;;;;;4209640;28;20872;-75
2023/05/06 09:57:32;;;;;;;13.67;10.30;;;16.60;99.90;;;;;;4209028;28;20234;-76
2023/05/06 09:59:34;;;;;;;11.90;8.73;;;16.70;99.90;;;;;;4209544;28;20327;-75
2023/05/06 10:01:37;;;;;;;13.10;9.30;;;16.80;99.90;;;;;;4206010;28;20218;-75
2023/05/06 10:03:41;;;;;;;12.53;8.20;;;16.80;99.90;;;;;;4208227;28;20230;-76
2023/05/06 10:05:43;;;;;;;14.00;8.63;;;16.90;99.90;;;;;;4208535;28;20231;-75
2023/05/06 10:07:49;;;;;;;14.10;8.27;;;16.90;99.90;;;;;;4209335;28;20303;-76
2023/05/06 10:09:51;;;;;;;12.70;9.03;;;17.00;99.90;;;;;;4209656;28;20232;-75
2023/05/06 10:11:54;;;;;;;15.40;9.33;;;17.00;99.90;;;;;;4208774;28;20230;-75
2023/05/06 10:13:56;;;;;;;10.60;7.30;;;17.00;99.90;;;;;;4215134;28;20316;-73
2023/05/06 10:16:01;;;;;;;13.47;7.80;;;17.00;99.90;;;;;;4213186;28;20215;-73
2023/05/06 10:18:05;;;;;;;9.03;7.27;;;17.00;99.90;;;;;;4209644;28;20216;-74
2023/05/06 10:20:11;;;;;;;10.80;8.07;;;17.00;99.90;;;;;;4212444;28;20205;-73
2023/05/06 10:22:19;;;;;;;12.43;9.20;;;17.10;99.90;;;;;;4206937;28;20215;-74
2023/05/06 10:24:29;;;;;;;13.17;9.67;;;17.20;99.90;;;;;;4212642;28;20658;-73